sensor_id;sensor_type;location;lat;lon;timestamp;P1;durP1;ratioP1;P2;durP2;ratioP2
46308;SDS011;32037;50.820;6.494;2023-05-10T00:02:06;2.37;;;2.17;;
46308;SDS011;32037;50.820;6.494;2023-05-10T00:04:34;3.13;;;2.57;;
46308;SDS011;32037;50.820;6.494;2023-05-10T00:07:03;3.20;;;2.90;;
46308;SDS011;32037;50.820;6.494;2023-05-10T00:09:31;2.90;;;2.60;;
46308;SDS011;32037;50.820;6.494;2023-05-10T00:12:00;2.93;;;2.73;;
46308;SDS011;32037;50.820;6.494;2023-05-10T00:14:28;2.43;;;2.23;;
46308;SDS011;32037;50.820;6.494;2023-05-10T00:16:57;2.30;;;2.10;;
46308;SDS011;32037;50.820;6.494;2023-05-10T00:19:27;3.70;;;2.93;;
46308;SDS011;32037;50.820;6.494;2023-05-10T00:21:55;2.67;;;2.30;;
46308;SDS011;32037;50.820;6.494;2023-05-10T00:24:23;2.80;;;2.50;;
46308;SDS011;32037;50.820;6.494;2023-05-10T00:26:52;3.07;;;2.67;;
46308;SDS011;32037;50.820;6.494;2023-05-10T00:29:20;2.83;;;2.63;;
46308;SDS011;32037;50.820;6.494;2023-05-10T00:31:48;3.67;;;3.37;;
46308;SDS011;32037;50.820;6.494;2023-05-10T00:34:17;2.83;;;2.63;;
46308;SDS011;32037;50.820;6.494;2023-05-10T00:36:47;4.50;;;4.10;;
46308;SDS011;32037;50.820;6.494;2023-05-10T00:39:15;2.70;;;2.50;;
46308;SDS011;32037;50.820;6.494;2023-05-10T00:41:43;3.03;;;2.70;;
46308;SDS011;32037;50.820;6.494;2023-05-10T00:44:12;2.67;;;2.43;;
46308;SDS011;32037;50.820;6.494;2023-05-10T00:46:40;2.37;;;2.17;;
46308;SDS011;32037;50.820;6.494;2023-05-10T00:49:09;2.60;;;2.40;;
46308;SDS011;32037;50.820;6.494;2023-05-10T00:51:38;3.10;;;2.80;;
46308;SDS011;32037;50.820;6.494;2023-05-10T00:54:11;2.90;;;2.60;;
46308;SDS011;32037;50.820;6.494;2023-05-10T00:56:41;3.27;;;2.80;;
46308;SDS011;32037;50.820;6.494;2023-05-10T00:59:15;3.77;;;2.70;;
46308;SDS011;32037;50.820;6.494;2023-05-10T01:01:44;2.70;;;2.30;;
46308;SDS011;32037;50.820;6.494;2023-05-10T01:04:13;3.13;;;2.77;;
46308;SDS011;32037;50.820;6.494;2023-05-10T01:06:42;2.90;;;2.43;;
46308;SDS011;32037;50.820;6.494;2023-05-10T01:09:12;2.60;;;2.37;;
46308;SDS011;32037;50.820;6.494;2023-05-10T01:11:41;2.87;;;2.60;;
46308;SDS011;32037;50.820;6.494;2023-05-10T01:14:09;2.67;;;2.47;;
46308;SDS011;32037;50.820;6.494;2023-05-10T01:16:40;2.37;;;2.17;;
46308;SDS011;32037;50.820;6.494;2023-05-10T01:19:12;3.40;;;2.77;;
46308;SDS011;32037;50.820;6.494;2023-05-10T01:21:48;2.37;;;2.17;;
46308;SDS011;32037;50.820;6.494;2023-05-10T01:24:35;2.57;;;2.37;;
46308;SDS011;32037;50.820;6.494;2023-05-10T01:27:32;2.03;;;1.53;;
46308;SDS011;32037;50.820;6.494;2023-05-10T01:30:32;1.97;;;1.77;;
46308;SDS011;32037;50.820;6.494;2023-05-10T01:33:16;3.53;;;3.20;;
46308;SDS011;32037;50.820;6.494;2023-05-10T01:35:51;1.77;;;1.50;;
46308;SDS011;32037;50.820;6.494;2023-05-10T01:38:25;2.30;;;2.10;;
46308;SDS011;32037;50.820;6.494;2023-05-10T01:41:01;4.60;;;2.20;;
46308;SDS011;32037;50.820;6.494;2023-05-10T01:43:39;2.70;;;2.40;;
46308;SDS011;32037;50.820;6.494;2023-05-10T01:46:20;3.40;;;2.80;;
46308;SDS011;32037;50.820;6.494;2023-05-10T01:48:57;3.23;;;2.80;;
46308;SDS011;32037;50.820;6.494;2023-05-10T01:51:29;2.57;;;2.37;;
46308;SDS011;32037;50.820;6.494;2023-05-10T01:54:04;4.17;;;3.30;;
46308;SDS011;32037;50.820;6.494;2023-05-10T01:56:34;3.30;;;3.00;;
46308;SDS011;32037;50.820;6.494;2023-05-10T01:59:06;3.70;;;3.33;;
46308;SDS011;32037;50.820;6.494;2023-05-10T02:01:40;3.20;;;2.90;;
46308;SDS011;32037;50.820;6.494;2023-05-10T02:04:11;3.77;;;3.37;;
46308;SDS011;32037;50.820;6.494;2023-05-10T02:06:45;4.20;;;3.80;;
46308;SDS011;32037;50.820;6.494;2023-05-10T02:09:15;2.77;;;2.50;;
46308;SDS011;32037;50.820;6.494;2023-05-10T02:11:45;3.50;;;3.07;;
46308;SDS011;32037;50.820;6.494;2023-05-10T02:14:16;3.33;;;3.03;;
46308;SDS011;32037;50.820;6.494;2023-05-10T02:16:47;4.30;;;3.90;;
46308;SDS011;32037;50.820;6.494;2023-05-10T02:19:18;4.73;;;3.23;;
46308;SDS011;32037;50.820;6.494;2023-05-10T02:21:49;3.80;;;3.50;;
46308;SDS011;32037;50.820;6.494;2023-05-10T02:24:19;3.53;;;3.17;;
46308;SDS011;32037;50.820;6.494;2023-05-10T02:26:49;5.00;;;2.73;;
46308;SDS011;32037;50.820;6.494;2023-05-10T02:29:19;4.90;;;3.27;;
46308;SDS011;32037;50.820;6.494;2023-05-10T02:31:49;3.00;;;2.57;;
46308;SDS011;32037;50.820;6.494;2023-05-10T02:34:22;3.93;;;3.53;;
46308;SDS011;32037;50.820;6.494;2023-05-10T02:36:53;3.60;;;2.97;;
46308;SDS011;32037;50.820;6.494;2023-05-10T02:39:22;3.13;;;2.83;;
46308;SDS011;32037;50.820;6.494;2023-05-10T02:41:52;2.83;;;2.60;;
46308;SDS011;32037;50.820;6.494;2023-05-10T02:44:21;3.20;;;2.77;;
46308;SDS011;32037;50.820;6.494;2023-05-10T02:46:51;3.20;;;2.90;;
46308;SDS011;32037;50.820;6.494;2023-05-10T02:49:23;3.53;;;3.10;;
46308;SDS011;32037;50.820;6.494;2023-05-10T02:51:56;2.50;;;2.20;;
46308;SDS011;32037;50.820;6.494;2023-05-10T02:54:29;2.63;;;2.43;;
46308;SDS011;32037;50.820;6.494;2023-05-10T02:57:00;3.23;;;2.93;;
46308;SDS011;32037;50.820;6.494;2023-05-10T02:59:32;2.60;;;2.40;;
46308;SDS011;32037;50.820;6.494;2023-05-10T03:02:01;3.50;;;2.67;;
46308;SDS011;32037;50.820;6.494;2023-05-10T03:04:32;3.80;;;2.57;;
46308;SDS011;32037;50.820;6.494;2023-05-10T03:07:00;3.40;;;3.10;;
46308;SDS011;32037;50.820;6.494;2023-05-10T03:09:29;3.07;;;2.70;;
46308;SDS011;32037;50.820;6.494;2023-05-10T03:12:00;3.10;;;2.73;;
46308;SDS011;32037;50.820;6.494;2023-05-10T03:14:34;3.50;;;3.10;;
46308;SDS011;32037;50.820;6.494;2023-05-10T03:17:14;2.90;;;2.60;;
46308;SDS011;32037;50.820;6.494;2023-05-10T03:19:51;4.07;;;3.40;;
46308;SDS011;32037;50.820;6.494;2023-05-10T03:22:24;5.00;;;3.47;;
46308;SDS011;32037;50.820;6.494;2023-05-10T03:24:56;3.07;;;2.77;;
46308;SDS011;32037;50.820;6.494;2023-05-10T03:27:28;3.20;;;2.90;;
46308;SDS011;32037;50.820;6.494;2023-05-10T03:29:59;3.03;;;2.83;;
46308;SDS011;32037;50.820;6.494;2023-05-10T03:32:32;2.90;;;2.60;;
46308;SDS011;32037;50.820;6.494;2023-05-10T03:35:04;3.33;;;2.87;;
46308;SDS011;32037;50.820;6.494;2023-05-10T03:37:35;3.43;;;2.73;;
46308;SDS011;32037;50.820;6.494;2023-05-10T03:40:05;2.93;;;2.70;;
46308;SDS011;32037;50.820;6.494;2023-05-10T03:42:36;2.97;;;2.77;;
46308;SDS011;32037;50.820;6.494;2023-05-10T03:45:05;4.63;;;3.00;;
46308;SDS011;32037;50.820;6.494;2023-05-10T03:47:34;2.70;;;2.50;;
46308;SDS011;32037;50.820;6.494;2023-05-10T03:50:05;3.30;;;2.77;;
46308;SDS011;32037;50.820;6.494;2023-05-10T03:52:34;2.63;;;2.13;;
46308;SDS011;32037;50.820;6.494;2023-05-10T03:55:05;3.30;;;3.00;;
46308;SDS011;32037;50.820;6.494;2023-05-10T03:57:34;3.30;;;3.00;;
46308;SDS011;32037;50.820;6.494;2023-05-10T04:00:03;4.87;;;2.63;;
46308;SDS011;32037;50.820;6.494;2023-05-10T04:02:39;3.87;;;3.13;;
46308;SDS011;32037;50.820;6.494;2023-05-10T04:05:16;3.73;;;3.43;;
46308;SDS011;32037;50.820;6.494;2023-05-10T04:07:45;5.23;;;3.17;;
46308;SDS011;32037;50.820;6.494;2023-05-10T04:10:15;3.93;;;3.50;;
46308;SDS011;32037;50.820;6.494;2023-05-10T04:12:44;2.83;;;2.50;;
46308;SDS011;32037;50.820;6.494;2023-05-10T04:15:13;3.10;;;2.80;;
46308;SDS011;32037;50.820;6.494;2023-05-10T04:17:41;4.10;;;3.70;;
46308;SDS011;32037;50.820;6.494;2023-05-10T04:20:10;3.70;;;2.93;;
46308;SDS011;32037;50.820;6.494;2023-05-10T04:22:41;4.37;;;3.33;;
46308;SDS011;32037;50.820;6.494;2023-05-10T04:25:09;5.27;;;3.20;;
46308;SDS011;32037;50.820;6.494;2023-05-10T04:27:38;4.00;;;3.60;;
46308;SDS011;32037;50.820;6.494;2023-05-10T04:30:07;4.00;;;3.27;;
46308;SDS011;32037;50.820;6.494;2023-05-10T04:32:36;3.43;;;3.13;;
46308;SDS011;32037;50.820;6.494;2023-05-10T04:35:05;3.33;;;2.47;;
46308;SDS011;32037;50.820;6.494;2023-05-10T04:37:34;4.43;;;3.80;;
46308;SDS011;32037;50.820;6.494;2023-05-10T04:40:05;4.97;;;4.47;;
46308;SDS011;32037;50.820;6.494;2023-05-10T04:42:34;4.60;;;4.10;;
46308;SDS011;32037;50.820;6.494;2023-05-10T04:45:03;3.83;;;3.20;;
46308;SDS011;32037;50.820;6.494;2023-05-10T04:47:32;4.50;;;2.90;;
46308;SDS011;32037;50.820;6.494;2023-05-10T04:50:01;4.90;;;4.40;;
46308;SDS011;32037;50.820;6.494;2023-05-10T04:52:29;3.20;;;2.90;;
46308;SDS011;32037;50.820;6.494;2023-05-10T04:54:58;3.90;;;3.60;;
46308;SDS011;32037;50.820;6.494;2023-05-10T04:57:28;3.33;;;3.03;;
46308;SDS011;32037;50.820;6.494;2023-05-10T04:59:56;4.20;;;3.33;;
46308;SDS011;32037;50.820;6.494;2023-05-10T05:02:25;3.80;;;3.10;;
46308;SDS011;32037;50.820;6.494;2023-05-10T05:04:55;4.70;;;3.70;;
46308;SDS011;32037;50.820;6.494;2023-05-10T05:07:24;5.83;;;3.90;;
46308;SDS011;32037;50.820;6.494;2023-05-10T05:09:52;5.00;;;3.20;;
46308;SDS011;32037;50.820;6.494;2023-05-10T05:12:21;3.10;;;2.80;;
46308;SDS011;32037;50.820;6.494;2023-05-10T05:14:51;3.20;;;2.90;;
46308;SDS011;32037;50.820;6.494;2023-05-10T05:17:19;2.63;;;2.43;;
46308;SDS011;32037;50.820;6.494;2023-05-10T05:19:48;3.00;;;2.70;;
46308;SDS011;32037;50.820;6.494;2023-05-10T05:22:20;4.10;;;3.57;;
46308;SDS011;32037;50.820;6.494;2023-05-10T05:24:53;5.03;;;2.60;;
46308;SDS011;32037;50.820;6.494;2023-05-10T05:27:22;3.47;;;2.70;;
46308;SDS011;32037;50.820;6.494;2023-05-10T05:29:54;3.70;;;3.10;;
46308;SDS011;32037;50.820;6.494;2023-05-10T05:32:23;3.43;;;2.87;;
46308;SDS011;32037;50.820;6.494;2023-05-10T05:34:52;3.57;;;3.17;;
46308;SDS011;32037;50.820;6.494;2023-05-10T05:37:20;4.17;;;3.10;;
46308;SDS011;32037;50.820;6.494;2023-05-10T05:39:49;3.20;;;2.90;;
46308;SDS011;32037;50.820;6.494;2023-05-10T05:42:18;3.87;;;2.63;;
46308;SDS011;32037;50.820;6.494;2023-05-10T05:44:46;3.90;;;3.07;;
46308;SDS011;32037;50.820;6.494;2023-05-10T05:47:16;2.40;;;2.20;;
46308;SDS011;32037;50.820;6.494;2023-05-10T05:49:45;2.80;;;2.60;;
46308;SDS011;32037;50.820;6.494;2023-05-10T05:52:13;3.13;;;2.80;;
46308;SDS011;32037;50.820;6.494;2023-05-10T05:54:43;4.07;;;3.50;;
46308;SDS011;32037;50.820;6.494;2023-05-10T05:57:12;3.10;;;2.57;;
46308;SDS011;32037;50.820;6.494;2023-05-10T05:59:40;3.20;;;2.83;;
46308;SDS011;32037;50.820;6.494;2023-05-10T06:02:10;4.00;;;3.10;;
46308;SDS011;32037;50.820;6.494;2023-05-10T06:04:40;3.97;;;3.50;;
46308;SDS011;32037;50.820;6.494;2023-05-10T06:07:10;2.93;;;2.63;;
46308;SDS011;32037;50.820;6.494;2023-05-10T06:09:39;3.80;;;3.33;;
46308;SDS011;32037;50.820;6.494;2023-05-10T06:12:07;3.30;;;3.00;;
46308;SDS011;32037;50.820;6.494;2023-05-10T06:14:36;3.80;;;3.50;;
46308;SDS011;32037;50.820;6.494;2023-05-10T06:17:05;5.67;;;4.40;;
46308;SDS011;32037;50.820;6.494;2023-05-10T06:19:33;4.20;;;3.30;;
46308;SDS011;32037;50.820;6.494;2023-05-10T06:22:04;5.00;;;4.00;;
46308;SDS011;32037;50.820;6.494;2023-05-10T06:24:33;3.53;;;2.80;;
46308;SDS011;32037;50.820;6.494;2023-05-10T06:27:02;3.33;;;3.03;;
46308;SDS011;32037;50.820;6.494;2023-05-10T06:29:30;3.97;;;2.83;;
46308;SDS011;32037;50.820;6.494;2023-05-10T06:31:59;3.90;;;3.50;;
46308;SDS011;32037;50.820;6.494;2023-05-10T06:34:27;3.93;;;2.90;;
46308;SDS011;32037;50.820;6.494;2023-05-10T06:36:56;2.90;;;2.60;;
46308;SDS011;32037;50.820;6.494;2023-05-10T06:39:26;3.20;;;2.70;;
46308;SDS011;32037;50.820;6.494;2023-05-10T06:41:55;4.03;;;2.20;;
46308;SDS011;32037;50.820;6.494;2023-05-10T06:44:31;3.70;;;2.77;;
46308;SDS011;32037;50.820;6.494;2023-05-10T06:46:59;2.97;;;2.67;;
46308;SDS011;32037;50.820;6.494;2023-05-10T06:49:28;3.20;;;2.67;;
46308;SDS011;32037;50.820;6.494;2023-05-10T06:51:56;3.23;;;2.20;;
46308;SDS011;32037;50.820;6.494;2023-05-10T06:54:27;2.60;;;2.40;;
46308;SDS011;32037;50.820;6.494;2023-05-10T06:56:55;3.10;;;2.60;;
46308;SDS011;32037;50.820;6.494;2023-05-10T06:59:24;2.83;;;2.40;;
46308;SDS011;32037;50.820;6.494;2023-05-10T07:01:53;3.10;;;2.80;;
46308;SDS011;32037;50.820;6.494;2023-05-10T07:04:21;3.20;;;1.97;;
46308;SDS011;32037;50.820;6.494;2023-05-10T07:06:50;2.80;;;2.20;;
46308;SDS011;32037;50.820;6.494;2023-05-10T07:09:18;2.70;;;2.43;;
46308;SDS011;32037;50.820;6.494;2023-05-10T07:11:48;2.30;;;2.10;;
46308;SDS011;32037;50.820;6.494;2023-05-10T07:14:17;4.17;;;3.00;;
46308;SDS011;32037;50.820;6.494;2023-05-10T07:16:45;2.33;;;2.00;;
46308;SDS011;32037;50.820;6.494;2023-05-10T07:19:16;2.27;;;2.07;;
46308;SDS011;32037;50.820;6.494;2023-05-10T07:21:45;2.90;;;2.60;;
46308;SDS011;32037;50.820;6.494;2023-05-10T07:24:13;1.90;;;1.70;;
46308;SDS011;32037;50.820;6.494;2023-05-10T07:26:42;1.93;;;1.77;;
46308;SDS011;32037;50.820;6.494;2023-05-10T07:29:12;3.03;;;2.00;;
46308;SDS011;32037;50.820;6.494;2023-05-10T07:31:42;2.37;;;2.03;;
46308;SDS011;32037;50.820;6.494;2023-05-10T07:34:11;2.67;;;2.00;;
46308;SDS011;32037;50.820;6.494;2023-05-10T07:36:39;2.30;;;1.73;;
46308;SDS011;32037;50.820;6.494;2023-05-10T07:39:08;2.20;;;2.00;;
46308;SDS011;32037;50.820;6.494;2023-05-10T07:41:41;1.87;;;1.73;;
46308;SDS011;32037;50.820;6.494;2023-05-10T07:44:10;2.23;;;1.90;;
46308;SDS011;32037;50.820;6.494;2023-05-10T07:46:40;2.27;;;1.67;;
46308;SDS011;32037;50.820;6.494;2023-05-10T07:49:09;2.73;;;2.40;;
46308;SDS011;32037;50.820;6.494;2023-05-10T07:51:38;2.10;;;1.70;;
46308;SDS011;32037;50.820;6.494;2023-05-10T07:54:06;2.10;;;1.60;;
46308;SDS011;32037;50.820;6.494;2023-05-10T07:56:35;2.10;;;1.80;;
46308;SDS011;32037;50.820;6.494;2023-05-10T07:59:04;2.10;;;1.87;;
46308;SDS011;32037;50.820;6.494;2023-05-10T08:01:35;1.70;;;1.57;;
46308;SDS011;32037;50.820;6.494;2023-05-10T08:04:05;2.97;;;2.30;;
46308;SDS011;32037;50.820;6.494;2023-05-10T08:06:34;1.87;;;1.67;;
46308;SDS011;32037;50.820;6.494;2023-05-10T08:09:02;2.03;;;1.83;;
46308;SDS011;32037;50.820;6.494;2023-05-10T08:11:31;2.40;;;1.57;;
46308;SDS011;32037;50.820;6.494;2023-05-10T08:14:00;2.10;;;1.57;;
46308;SDS011;32037;50.820;6.494;2023-05-10T08:16:29;1.80;;;1.50;;
46308;SDS011;32037;50.820;6.494;2023-05-10T08:18:59;1.90;;;1.63;;
46308;SDS011;32037;50.820;6.494;2023-05-10T08:21:29;1.87;;;1.77;;
46308;SDS011;32037;50.820;6.494;2023-05-10T08:23:58;1.80;;;1.60;;
46308;SDS011;32037;50.820;6.494;2023-05-10T08:26:27;2.13;;;1.97;;
46308;SDS011;32037;50.820;6.494;2023-05-10T08:28:55;1.87;;;1.73;;
46308;SDS011;32037;50.820;6.494;2023-05-10T08:31:24;2.73;;;1.63;;
46308;SDS011;32037;50.820;6.494;2023-05-10T08:33:52;3.00;;;2.57;;
46308;SDS011;32037;50.820;6.494;2023-05-10T08:36:21;3.33;;;2.37;;
46308;SDS011;32037;50.820;6.494;2023-05-10T08:38:52;2.47;;;2.27;;
46308;SDS011;32037;50.820;6.494;2023-05-10T08:41:22;2.50;;;2.00;;
46308;SDS011;32037;50.820;6.494;2023-05-10T08:43:52;3.47;;;2.80;;
46308;SDS011;32037;50.820;6.494;2023-05-10T08:46:22;2.80;;;2.30;;
46308;SDS011;32037;50.820;6.494;2023-05-10T08:48:51;4.43;;;3.10;;
46308;SDS011;32037;50.820;6.494;2023-05-10T08:51:22;6.30;;;2.87;;
46308;SDS011;32037;50.820;6.494;2023-05-10T08:53:54;4.80;;;3.80;;
46308;SDS011;32037;50.820;6.494;2023-05-10T08:56:24;3.30;;;2.70;;
46308;SDS011;32037;50.820;6.494;2023-05-10T08:58:52;5.47;;;4.13;;
46308;SDS011;32037;50.820;6.494;2023-05-10T09:01:22;3.87;;;3.47;;
46308;SDS011;32037;50.820;6.494;2023-05-10T09:03:51;2.70;;;2.50;;
46308;SDS011;32037;50.820;6.494;2023-05-10T09:06:21;7.13;;;4.40;;
46308;SDS011;32037;50.820;6.494;2023-05-10T09:08:50;9.17;;;6.10;;
46308;SDS011;32037;50.820;6.494;2023-05-10T09:11:22;9.93;;;7.82;;
46308;SDS011;32037;50.820;6.494;2023-05-10T09:13:51;7.97;;;6.03;;
46308;SDS011;32037;50.820;6.494;2023-05-10T09:16:21;8.67;;;6.80;;
46308;SDS011;32037;50.820;6.494;2023-05-10T09:18:52;7.73;;;6.13;;
46308;SDS011;32037;50.820;6.494;2023-05-10T09:21:24;7.63;;;5.13;;
46308;SDS011;32037;50.820;6.494;2023-05-10T09:23:54;9.00;;;5.57;;
46308;SDS011;32037;50.820;6.494;2023-05-10T09:26:23;5.40;;;4.50;;
46308;SDS011;32037;50.820;6.494;2023-05-10T09:28:52;5.03;;;3.90;;
46308;SDS011;32037;50.820;6.494;2023-05-10T09:31:21;6.23;;;5.20;;
46308;SDS011;32037;50.820;6.494;2023-05-10T09:33:51;6.93;;;4.67;;
46308;SDS011;32037;50.820;6.494;2023-05-10T09:36:21;4.70;;;3.83;;
46308;SDS011;32037;50.820;6.494;2023-05-10T09:38:50;4.73;;;3.90;;
46308;SDS011;32037;50.820;6.494;2023-05-10T09:41:21;5.63;;;4.63;;
46308;SDS011;32037;50.820;6.494;2023-05-10T09:43:55;4.43;;;3.53;;
46308;SDS011;32037;50.820;6.494;2023-05-10T09:46:23;5.33;;;4.77;;
46308;SDS011;32037;50.820;6.494;2023-05-10T09:48:52;6.20;;;4.60;;
46308;SDS011;32037;50.820;6.494;2023-05-10T09:51:21;4.23;;;3.50;;
46308;SDS011;32037;50.820;6.494;2023-05-10T09:53:50;5.47;;;3.43;;
46308;SDS011;32037;50.820;6.494;2023-05-10T09:56:38;4.37;;;3.60;;
46308;SDS011;32037;50.820;6.494;2023-05-10T09:59:07;4.20;;;3.53;;
46308;SDS011;32037;50.820;6.494;2023-05-10T10:01:38;4.70;;;3.13;;
46308;SDS011;32037;50.820;6.494;2023-05-10T10:04:08;5.10;;;3.53;;
46308;SDS011;32037;50.820;6.494;2023-05-10T10:06:38;3.77;;;3.27;;
46308;SDS011;32037;50.820;6.494;2023-05-10T10:09:07;3.87;;;3.27;;
46308;SDS011;32037;50.820;6.494;2023-05-10T10:11:38;4.60;;;3.60;;
46308;SDS011;32037;50.820;6.494;2023-05-10T10:14:08;3.80;;;2.93;;
46308;SDS011;32037;50.820;6.494;2023-05-10T10:16:36;3.50;;;3.20;;
46308;SDS011;32037;50.820;6.494;2023-05-10T10:19:17;3.60;;;3.13;;
46308;SDS011;32037;50.820;6.494;2023-05-10T10:21:47;4.63;;;3.90;;
46308;SDS011;32037;50.820;6.494;2023-05-10T10:24:15;4.20;;;3.27;;
46308;SDS011;32037;50.820;6.494;2023-05-10T10:26:45;3.17;;;2.70;;
46308;SDS011;32037;50.820;6.494;2023-05-10T10:29:18;3.33;;;3.03;;
46308;SDS011;32037;50.820;6.494;2023-05-10T10:31:52;4.30;;;3.33;;
46308;SDS011;32037;50.820;6.494;2023-05-10T10:34:30;3.53;;;3.03;;
46308;SDS011;32037;50.820;6.494;2023-05-10T10:37:03;3.53;;;3.20;;
46308;SDS011;32037;50.820;6.494;2023-05-10T10:39:33;2.97;;;2.33;;
46308;SDS011;32037;50.820;6.494;2023-05-10T10:42:04;3.60;;;2.93;;
46308;SDS011;32037;50.820;6.494;2023-05-10T10:44:33;3.07;;;2.80;;
46308;SDS011;32037;50.820;6.494;2023-05-10T10:47:05;4.27;;;2.47;;
46308;SDS011;32037;50.820;6.494;2023-05-10T10:50:04;3.03;;;2.60;;
46308;SDS011;32037;50.820;6.494;2023-05-10T10:52:34;3.10;;;2.70;;
46308;SDS011;32037;50.820;6.494;2023-05-10T10:55:04;3.80;;;2.70;;
46308;SDS011;32037;50.820;6.494;2023-05-10T10:57:45;3.53;;;2.63;;
46308;SDS011;32037;50.820;6.494;2023-05-10T11:00:19;3.90;;;3.10;;
46308;SDS011;32037;50.820;6.494;2023-05-10T11:02:52;3.07;;;2.40;;
46308;SDS011;32037;50.820;6.494;2023-05-10T11:05:25;3.13;;;2.63;;
46308;SDS011;32037;50.820;6.494;2023-05-10T11:08:14;2.87;;;2.57;;
46308;SDS011;32037;50.820;6.494;2023-05-10T11:10:51;3.30;;;2.80;;
46308;SDS011;32037;50.820;6.494;2023-05-10T11:13:29;3.20;;;2.67;;
46308;SDS011;32037;50.820;6.494;2023-05-10T11:15:58;3.17;;;2.83;;
46308;SDS011;32037;50.820;6.494;2023-05-10T11:18:37;2.93;;;2.50;;
46308;SDS011;32037;50.820;6.494;2023-05-10T11:21:07;2.90;;;2.40;;
46308;SDS011;32037;50.820;6.494;2023-05-10T11:23:49;3.40;;;2.67;;
46308;SDS011;32037;50.820;6.494;2023-05-10T11:26:22;2.87;;;2.57;;
46308;SDS011;32037;50.820;6.494;2023-05-10T11:28:53;2.53;;;2.33;;
46308;SDS011;32037;50.820;6.494;2023-05-10T11:31:27;3.13;;;2.73;;
46308;SDS011;32037;50.820;6.494;2023-05-10T11:33:57;3.00;;;2.30;;
46308;SDS011;32037;50.820;6.494;2023-05-10T11:36:32;2.80;;;2.20;;
46308;SDS011;32037;50.820;6.494;2023-05-10T11:39:01;3.07;;;2.50;;
46308;SDS011;32037;50.820;6.494;2023-05-10T11:41:32;2.40;;;2.20;;
46308;SDS011;32037;50.820;6.494;2023-05-10T11:44:01;2.80;;;2.50;;
46308;SDS011;32037;50.820;6.494;2023-05-10T11:46:30;2.63;;;2.43;;
46308;SDS011;32037;50.820;6.494;2023-05-10T11:48:59;2.93;;;1.77;;
46308;SDS011;32037;50.820;6.494;2023-05-10T11:51:32;2.50;;;2.30;;
46308;SDS011;32037;50.820;6.494;2023-05-10T11:54:04;3.17;;;2.70;;
46308;SDS011;32037;50.820;6.494;2023-05-10T11:56:34;2.80;;;2.50;;
46308;SDS011;32037;50.820;6.494;2023-05-10T11:59:03;2.83;;;2.63;;
46308;SDS011;32037;50.820;6.494;2023-05-10T12:01:34;2.63;;;1.83;;
46308;SDS011;32037;50.820;6.494;2023-05-10T12:04:04;2.70;;;2.40;;
46308;SDS011;32037;50.820;6.494;2023-05-10T12:06:34;3.50;;;2.23;;
46308;SDS011;32037;50.820;6.494;2023-05-10T12:09:07;3.40;;;2.03;;
46308;SDS011;32037;50.820;6.494;2023-05-10T12:11:37;2.63;;;2.40;;
46308;SDS011;32037;50.820;6.494;2023-05-10T12:14:11;2.30;;;1.67;;
46308;SDS011;32037;50.820;6.494;2023-05-10T12:16:39;2.10;;;1.73;;
46308;SDS011;32037;50.820;6.494;2023-05-10T12:19:08;2.67;;;2.13;;
46308;SDS011;32037;50.820;6.494;2023-05-10T12:21:36;3.13;;;2.20;;
46308;SDS011;32037;50.820;6.494;2023-05-10T12:24:05;3.53;;;2.10;;
46308;SDS011;32037;50.820;6.494;2023-05-10T12:26:35;2.50;;;2.20;;
46308;SDS011;32037;50.820;6.494;2023-05-10T12:29:14;3.53;;;2.07;;
46308;SDS011;32037;50.820;6.494;2023-05-10T12:31:51;2.60;;;2.07;;
46308;SDS011;32037;50.820;6.494;2023-05-10T12:34:26;2.63;;;1.80;;
46308;SDS011;32037;50.820;6.494;2023-05-10T12:36:59;3.57;;;1.83;;
46308;SDS011;32037;50.820;6.494;2023-05-10T12:39:38;2.50;;;1.67;;
46308;SDS011;32037;50.820;6.494;2023-05-10T12:42:07;2.77;;;1.90;;
46308;SDS011;32037;50.820;6.494;2023-05-10T12:44:38;4.03;;;2.17;;
46308;SDS011;32037;50.820;6.494;2023-05-10T12:47:06;2.73;;;2.23;;
46308;SDS011;32037;50.820;6.494;2023-05-10T12:49:35;2.17;;;1.97;;
46308;SDS011;32037;50.820;6.494;2023-05-10T12:52:03;2.37;;;2.17;;
46308;SDS011;32037;50.820;6.494;2023-05-10T12:54:31;3.60;;;2.20;;
46308;SDS011;32037;50.820;6.494;2023-05-10T12:57:00;2.20;;;2.00;;
46308;SDS011;32037;50.820;6.494;2023-05-10T12:59:28;2.40;;;2.20;;
46308;SDS011;32037;50.820;6.494;2023-05-10T13:01:58;2.50;;;2.10;;
46308;SDS011;32037;50.820;6.494;2023-05-10T13:04:26;3.80;;;2.67;;
46308;SDS011;32037;50.820;6.494;2023-05-10T13:06:54;4.07;;;2.50;;
46308;SDS011;32037;50.820;6.494;2023-05-10T13:09:25;2.80;;;2.30;;
46308;SDS011;32037;50.820;6.494;2023-05-10T13:11:55;2.33;;;2.00;;
46308;SDS011;32037;50.820;6.494;2023-05-10T13:14:24;2.30;;;2.10;;
46308;SDS011;32037;50.820;6.494;2023-05-10T13:16:52;2.73;;;2.00;;
46308;SDS011;32037;50.820;6.494;2023-05-10T13:19:23;4.67;;;2.37;;
46308;SDS011;32037;50.820;6.494;2023-05-10T13:21:51;2.77;;;2.30;;
46308;SDS011;32037;50.820;6.494;2023-05-10T13:24:20;2.63;;;1.90;;
46308;SDS011;32037;50.820;6.494;2023-05-10T13:26:48;3.33;;;1.80;;
46308;SDS011;32037;50.820;6.494;2023-05-10T13:29:17;3.07;;;2.00;;
46308;SDS011;32037;50.820;6.494;2023-05-10T13:31:48;3.03;;;2.30;;
46308;SDS011;32037;50.820;6.494;2023-05-10T13:34:16;2.80;;;2.30;;
46308;SDS011;32037;50.820;6.494;2023-05-10T13:36:48;2.70;;;2.20;;
46308;SDS011;32037;50.820;6.494;2023-05-10T13:39:17;2.47;;;2.27;;
46308;SDS011;32037;50.820;6.494;2023-05-10T13:41:45;2.10;;;1.90;;
46308;SDS011;32037;50.820;6.494;2023-05-10T13:44:14;3.63;;;2.23;;
46308;SDS011;32037;50.820;6.494;2023-05-10T13:46:42;2.40;;;2.20;;
46308;SDS011;32037;50.820;6.494;2023-05-10T13:49:17;2.60;;;1.97;;
46308;SDS011;32037;50.820;6.494;2023-05-10T13:51:45;3.03;;;2.10;;
46308;SDS011;32037;50.820;6.494;2023-05-10T13:54:15;2.47;;;2.27;;
46308;SDS011;32037;50.820;6.494;2023-05-10T13:56:45;2.83;;;2.30;;
46308;SDS011;32037;50.820;6.494;2023-05-10T13:59:14;2.63;;;2.23;;
46308;SDS011;32037;50.820;6.494;2023-05-10T14:01:43;2.90;;;2.60;;
46308;SDS011;32037;50.820;6.494;2023-05-10T14:04:11;2.77;;;2.40;;
46308;SDS011;32037;50.820;6.494;2023-05-10T14:06:40;2.17;;;1.97;;
46308;SDS011;32037;50.820;6.494;2023-05-10T14:09:08;2.53;;;2.33;;
46308;SDS011;32037;50.820;6.494;2023-05-10T14:11:38;2.87;;;2.23;;
46308;SDS011;32037;50.820;6.494;2023-05-10T14:14:09;4.70;;;3.03;;
46308;SDS011;32037;50.820;6.494;2023-05-10T14:16:38;2.30;;;1.70;;
46308;SDS011;32037;50.820;6.494;2023-05-10T14:19:10;2.43;;;2.23;;
46308;SDS011;32037;50.820;6.494;2023-05-10T14:21:39;3.07;;;2.77;;
46308;SDS011;32037;50.820;6.494;2023-05-10T14:24:07;3.13;;;2.43;;
46308;SDS011;32037;50.820;6.494;2023-05-10T14:26:38;2.57;;;2.17;;
46308;SDS011;32037;50.820;6.494;2023-05-10T14:29:06;2.80;;;2.27;;
46308;SDS011;32037;50.820;6.494;2023-05-10T14:31:37;3.10;;;2.37;;
46308;SDS011;32037;50.820;6.494;2023-05-10T14:34:06;5.70;;;2.60;;
46308;SDS011;32037;50.820;6.494;2023-05-10T14:36:34;2.40;;;1.77;;
46308;SDS011;32037;50.820;6.494;2023-05-10T14:39:02;2.10;;;1.80;;
46308;SDS011;32037;50.820;6.494;2023-05-10T14:41:31;2.50;;;2.30;;
46308;SDS011;32037;50.820;6.494;2023-05-10T14:44:01;3.70;;;2.23;;
46308;SDS011;32037;50.820;6.494;2023-05-10T14:46:45;2.70;;;2.17;;
46308;SDS011;32037;50.820;6.494;2023-05-10T14:49:14;2.37;;;2.17;;
46308;SDS011;32037;50.820;6.494;2023-05-10T14:51:43;3.30;;;2.23;;
46308;SDS011;32037;50.820;6.494;2023-05-10T14:54:11;3.13;;;2.80;;
46308;SDS011;32037;50.820;6.494;2023-05-10T14:56:39;2.17;;;1.53;;
46308;SDS011;32037;50.820;6.494;2023-05-10T14:59:09;2.30;;;2.00;;
46308;SDS011;32037;50.820;6.494;2023-05-10T15:01:38;4.10;;;2.63;;
46308;SDS011;32037;50.820;6.494;2023-05-10T15:04:08;2.30;;;2.10;;
46308;SDS011;32037;50.820;6.494;2023-05-10T15:06:37;2.33;;;2.10;;
46308;SDS011;32037;50.820;6.494;2023-05-10T15:09:05;2.70;;;2.20;;